sensor_id;sensor_type;location;lat;lon;timestamp;temperature;humidity
76613;DHT22;65507;48.454;-2.058;2022-12-07T00:01:04;3.00;82.20
76613;DHT22;65507;48.454;-2.058;2022-12-07T00:03:30;2.90;82.20
76613;DHT22;65507;48.454;-2.058;2022-12-07T00:05:59;2.90;82.40
76613;DHT22;65507;48.454;-2.058;2022-12-07T00:08:25;2.80;82.60
76613;DHT22;65507;48.454;-2.058;2022-12-07T00:10:51;2.70;82.70
76613;DHT22;65507;48.454;-2.058;2022-12-07T00:13:17;2.60;82.80
76613;DHT22;65507;48.454;-2.058;2022-12-07T00:15:43;2.60;82.90
76613;DHT22;65507;48.454;-2.058;2022-12-07T00:18:08;2.60;82.90
76613;DHT22;65507;48.454;-2.058;2022-12-07T00:20:34;2.50;82.80
76613;DHT22;65507;48.454;-2.058;2022-12-07T00:23:00;2.50;82.80
76613;DHT22;65507;48.454;-2.058;2022-12-07T00:25:26;2.50;82.80
76613;DHT22;65507;48.454;-2.058;2022-12-07T00:27:54;2.50;82.90
76613;DHT22;65507;48.454;-2.058;2022-12-07T00:30:22;2.40;82.80
76613;DHT22;65507;48.454;-2.058;2022-12-07T00:32:49;2.40;82.90
76613;DHT22;65507;48.454;-2.058;2022-12-07T00:35:14;2.40;82.90
76613;DHT22;65507;48.454;-2.058;2022-12-07T00:37:40;2.50;82.80
76613;DHT22;65507;48.454;-2.058;2022-12-07T00:40:06;2.60;82.70
76613;DHT22;65507;48.454;-2.058;2022-12-07T00:42:33;2.60;82.50
76613;DHT22;65507;48.454;-2.058;2022-12-07T00:44:58;2.50;82.40
76613;DHT22;65507;48.454;-2.058;2022-12-07T00:47:24;2.60;82.50
76613;DHT22;65507;48.454;-2.058;2022-12-07T00:49:53;2.60;82.50
76613;DHT22;65507;48.454;-2.058;2022-12-07T00:52:18;2.50;82.50
76613;DHT22;65507;48.454;-2.058;2022-12-07T00:54:44;2.50;82.50
76613;DHT22;65507;48.454;-2.058;2022-12-07T00:57:10;2.60;82.50
76613;DHT22;65507;48.454;-2.058;2022-12-07T00:59:35;2.60;82.50
76613;DHT22;65507;48.454;-2.058;2022-12-07T01:02:01;2.50;82.40
76613;DHT22;65507;48.454;-2.058;2022-12-07T01:04:27;2.50;82.50
76613;DHT22;65507;48.454;-2.058;2022-12-07T01:06:53;2.60;82.60
76613;DHT22;65507;48.454;-2.058;2022-12-07T01:09:18;2.60;82.50
76613;DHT22;65507;48.454;-2.058;2022-12-07T01:11:44;2.60;82.50
76613;DHT22;65507;48.454;-2.058;2022-12-07T01:14:10;2.60;82.50
76613;DHT22;65507;48.454;-2.058;2022-12-07T01:16:35;2.60;82.50
76613;DHT22;65507;48.454;-2.058;2022-12-07T01:19:02;2.70;82.50
76613;DHT22;65507;48.454;-2.058;2022-12-07T01:21:32;2.70;82.50
76613;DHT22;65507;48.454;-2.058;2022-12-07T01:24:05;2.70;82.40
76613;DHT22;65507;48.454;-2.058;2022-12-07T01:26:31;2.80;82.40
76613;DHT22;65507;48.454;-2.058;2022-12-07T01:28:56;2.80;82.20
76613;DHT22;65507;48.454;-2.058;2022-12-07T01:31:25;2.80;82.20
76613;DHT22;65507;48.454;-2.058;2022-12-07T01:33:53;2.90;82.10
76613;DHT22;65507;48.454;-2.058;2022-12-07T01:36:20;2.90;82.00
76613;DHT22;65507;48.454;-2.058;2022-12-07T01:38:48;2.90;81.90
76613;DHT22;65507;48.454;-2.058;2022-12-07T01:41:17;3.00;81.90
76613;DHT22;65507;48.454;-2.058;2022-12-07T01:46:48;3.10;81.70
76613;DHT22;65507;48.454;-2.058;2022-12-07T01:54:47;3.00;81.70
76613;DHT22;65507;48.454;-2.058;2022-12-07T01:57:16;3.10;81.80
76613;DHT22;65507;48.454;-2.058;2022-12-07T01:59:43;3.20;81.90
76613;DHT22;65507;48.454;-2.058;2022-12-07T02:02:29;3.30;81.90
76613;DHT22;65507;48.454;-2.058;2022-12-07T02:04:59;3.30;81.80
76613;DHT22;65507;48.454;-2.058;2022-12-07T02:07:27;3.40;81.70
76613;DHT22;65507;48.454;-2.058;2022-12-07T02:09:53;3.40;81.60
76613;DHT22;65507;48.454;-2.058;2022-12-07T02:12:19;3.40;81.70
76613;DHT22;65507;48.454;-2.058;2022-12-07T02:14:46;3.40;81.70
76613;DHT22;65507;48.454;-2.058;2022-12-07T02:17:28;3.50;81.80
76613;DHT22;65507;48.454;-2.058;2022-12-07T02:28:00;3.70;81.70
76613;DHT22;65507;48.454;-2.058;2022-12-07T02:30:31;3.80;81.60
76613;DHT22;65507;48.454;-2.058;2022-12-07T02:33:09;3.80;81.50
76613;DHT22;65507;48.454;-2.058;2022-12-07T02:38:18;3.90;81.50
76613;DHT22;65507;48.454;-2.058;2022-12-07T02:41:00;3.90;81.50
76613;DHT22;65507;48.454;-2.058;2022-12-07T02:43:28;3.90;81.40
76613;DHT22;65507;48.454;-2.058;2022-12-07T02:46:01;4.00;81.40
76613;DHT22;65507;48.454;-2.058;2022-12-07T02:48:28;4.00;81.30
76613;DHT22;65507;48.454;-2.058;2022-12-07T02:50:54;4.00;81.30
76613;DHT22;65507;48.454;-2.058;2022-12-07T02:53:46;4.00;81.40
76613;DHT22;65507;48.454;-2.058;2022-12-07T03:02:00;4.00;81.70
76613;DHT22;65507;48.454;-2.058;2022-12-07T03:07:18;4.10;81.60
76613;DHT22;65507;48.454;-2.058;2022-12-07T03:12:42;4.20;81.50
76613;DHT22;65507;48.454;-2.058;2022-12-07T03:15:16;4.20;81.50
76613;DHT22;65507;48.454;-2.058;2022-12-07T03:17:45;4.30;81.50
76613;DHT22;65507;48.454;-2.058;2022-12-07T03:20:13;4.40;81.40
76613;DHT22;65507;48.454;-2.058;2022-12-07T03:22:43;4.40;81.30
76613;DHT22;65507;48.454;-2.058;2022-12-07T03:25:11;4.40;81.20
76613;DHT22;65507;48.454;-2.058;2022-12-07T03:27:52;4.50;81.20
76613;DHT22;65507;48.454;-2.058;2022-12-07T03:30:24;4.50;81.20
76613;DHT22;65507;48.454;-2.058;2022-12-07T03:33:10;4.50;81.10
76613;DHT22;65507;48.454;-2.058;2022-12-07T03:35:44;4.50;81.30
76613;DHT22;65507;48.454;-2.058;2022-12-07T03:40:56;4.50;81.30
76613;DHT22;65507;48.454;-2.058;2022-12-07T03:43:22;4.50;81.50
76613;DHT22;65507;48.454;-2.058;2022-12-07T03:46:01;4.40;81.70
76613;DHT22;65507;48.454;-2.058;2022-12-07T03:48:49;4.40;81.70
76613;DHT22;65507;48.454;-2.058;2022-12-07T03:51:40;4.50;81.70
76613;DHT22;65507;48.454;-2.058;2022-12-07T03:54:14;4.50;81.50
76613;DHT22;65507;48.454;-2.058;2022-12-07T03:56:42;4.50;81.50
76613;DHT22;65507;48.454;-2.058;2022-12-07T03:59:09;4.60;81.30
76613;DHT22;65507;48.454;-2.058;2022-12-07T04:01:36;4.60;81.40
76613;DHT22;65507;48.454;-2.058;2022-12-07T04:04:02;4.60;81.30
76613;DHT22;65507;48.454;-2.058;2022-12-07T04:06:27;4.70;81.20
76613;DHT22;65507;48.454;-2.058;2022-12-07T04:08:53;4.70;81.20
76613;DHT22;65507;48.454;-2.058;2022-12-07T04:11:19;4.70;81.20
76613;DHT22;65507;48.454;-2.058;2022-12-07T04:13:45;4.70;81.20
76613;DHT22;65507;48.454;-2.058;2022-12-07T04:16:29;4.60;81.20
76613;DHT22;65507;48.454;-2.058;2022-12-07T04:18:55;4.60;81.40
76613;DHT22;65507;48.454;-2.058;2022-12-07T04:21:20;4.60;81.50
76613;DHT22;65507;48.454;-2.058;2022-12-07T04:23:46;4.50;81.60
76613;DHT22;65507;48.454;-2.058;2022-12-07T04:26:12;4.50;81.70
76613;DHT22;65507;48.454;-2.058;2022-12-07T04:28:37;4.50;81.80
76613;DHT22;65507;48.454;-2.058;2022-12-07T04:31:03;4.50;81.80
76613;DHT22;65507;48.454;-2.058;2022-12-07T04:33:29;4.50;81.80
76613;DHT22;65507;48.454;-2.058;2022-12-07T04:35:55;4.60;81.80
76613;DHT22;65507;48.454;-2.058;2022-12-07T04:38:20;4.60;81.60
76613;DHT22;65507;48.454;-2.058;2022-12-07T04:40:46;4.60;81.60
76613;DHT22;65507;48.454;-2.058;2022-12-07T04:43:12;4.60;81.60
76613;DHT22;65507;48.454;-2.058;2022-12-07T04:45:37;4.50;81.60
76613;DHT22;65507;48.454;-2.058;2022-12-07T04:48:03;4.50;81.70
76613;DHT22;65507;48.454;-2.058;2022-12-07T04:50:29;4.40;81.80
76613;DHT22;65507;48.454;-2.058;2022-12-07T04:52:55;4.50;81.80
76613;DHT22;65507;48.454;-2.058;2022-12-07T04:55:20;4.50;81.70
76613;DHT22;65507;48.454;-2.058;2022-12-07T04:57:46;4.50;81.70
76613;DHT22;65507;48.454;-2.058;2022-12-07T05:00:12;4.50;81.60
76613;DHT22;65507;48.454;-2.058;2022-12-07T05:02:37;4.60;81.60
76613;DHT22;65507;48.454;-2.058;2022-12-07T05:05:03;4.60;81.60
76613;DHT22;65507;48.454;-2.058;2022-12-07T05:07:29;4.60;81.60
76613;DHT22;65507;48.454;-2.058;2022-12-07T05:09:55;4.60;81.60
76613;DHT22;65507;48.454;-2.058;2022-12-07T05:12:20;4.70;81.60
76613;DHT22;65507;48.454;-2.058;2022-12-07T05:14:46;4.70;81.50
76613;DHT22;65507;48.454;-2.058;2022-12-07T05:17:12;4.70;81.50
76613;DHT22;65507;48.454;-2.058;2022-12-07T05:19:37;4.70;81.40
76613;DHT22;65507;48.454;-2.058;2022-12-07T05:22:03;4.70;81.30
76613;DHT22;65507;48.454;-2.058;2022-12-07T05:24:29;4.80;81.40
76613;DHT22;65507;48.454;-2.058;2022-12-07T05:26:55;4.80;81.40
76613;DHT22;65507;48.454;-2.058;2022-12-07T05:29:20;4.80;81.30
76613;DHT22;65507;48.454;-2.058;2022-12-07T05:31:46;4.70;81.30
76613;DHT22;65507;48.454;-2.058;2022-12-07T05:34:14;4.70;82.30
76613;DHT22;65507;48.454;-2.058;2022-12-07T05:36:40;4.70;81.50
76613;DHT22;65507;48.454;-2.058;2022-12-07T05:39:06;4.70;81.50
76613;DHT22;65507;48.454;-2.058;2022-12-07T05:41:32;4.70;81.60
76613;DHT22;65507;48.454;-2.058;2022-12-07T05:44:17;4.70;81.40
76613;DHT22;65507;48.454;-2.058;2022-12-07T05:46:42;4.70;81.20
76613;DHT22;65507;48.454;-2.058;2022-12-07T05:49:08;4.60;81.30
76613;DHT22;65507;48.454;-2.058;2022-12-07T05:51:34;4.50;81.60
76613;DHT22;65507;48.454;-2.058;2022-12-07T05:53:59;4.40;81.80
76613;DHT22;65507;48.454;-2.058;2022-12-07T05:56:25;4.30;82.00
76613;DHT22;65507;48.454;-2.058;2022-12-07T05:58:52;4.30;82.10
76613;DHT22;65507;48.454;-2.058;2022-12-07T06:01:40;4.30;83.10
76613;DHT22;65507;48.454;-2.058;2022-12-07T06:04:06;4.30;82.10
76613;DHT22;65507;48.454;-2.058;2022-12-07T06:06:32;4.30;82.10
76613;DHT22;65507;48.454;-2.058;2022-12-07T06:08:58;4.30;82.00
76613;DHT22;65507;48.454;-2.058;2022-12-07T06:11:24;4.40;82.00
76613;DHT22;65507;48.454;-2.058;2022-12-07T06:14:08;4.40;81.90
76613;DHT22;65507;48.454;-2.058;2022-12-07T06:16:34;4.40;81.80
76613;DHT22;65507;48.454;-2.058;2022-12-07T06:19:00;4.40;81.70
76613;DHT22;65507;48.454;-2.058;2022-12-07T06:21:25;4.40;81.70
76613;DHT22;65507;48.454;-2.058;2022-12-07T06:23:52;4.50;81.80
76613;DHT22;65507;48.454;-2.058;2022-12-07T06:26:18;4.50;81.70
76613;DHT22;65507;48.454;-2.058;2022-12-07T06:28:43;4.50;81.60
76613;DHT22;65507;48.454;-2.058;2022-12-07T06:31:09;4.60;81.60
76613;DHT22;65507;48.454;-2.058;2022-12-07T06:33:35;4.60;81.50
76613;DHT22;65507;48.454;-2.058;2022-12-07T06:36:01;4.60;81.50
76613;DHT22;65507;48.454;-2.058;2022-12-07T06:38:26;4.70;81.50
76613;DHT22;65507;48.454;-2.058;2022-12-07T06:40:52;4.70;81.30
76613;DHT22;65507;48.454;-2.058;2022-12-07T06:43:18;4.80;81.30
76613;DHT22;65507;48.454;-2.058;2022-12-07T06:45:44;4.80;81.30
76613;DHT22;65507;48.454;-2.058;2022-12-07T06:48:10;4.80;81.20
76613;DHT22;65507;48.454;-2.058;2022-12-07T06:50:35;4.90;81.10
76613;DHT22;65507;48.454;-2.058;2022-12-07T06:53:01;4.90;81.00
76613;DHT22;65507;48.454;-2.058;2022-12-07T06:55:27;5.00;81.00
76613;DHT22;65507;48.454;-2.058;2022-12-07T06:57:52;5.00;81.00
76613;DHT22;65507;48.454;-2.058;2022-12-07T07:00:19;5.00;80.90
76613;DHT22;65507;48.454;-2.058;2022-12-07T07:02:44;5.00;80.80
76613;DHT22;65507;48.454;-2.058;2022-12-07T07:05:10;5.00;80.80
76613;DHT22;65507;48.454;-2.058;2022-12-07T07:07:36;5.10;80.80
76613;DHT22;65507;48.454;-2.058;2022-12-07T07:10:02;5.10;80.80
76613;DHT22;65507;48.454;-2.058;2022-12-07T07:12:27;5.10;80.80
76613;DHT22;65507;48.454;-2.058;2022-12-07T07:14:53;5.10;80.80
76613;DHT22;65507;48.454;-2.058;2022-12-07T07:17:19;5.10;80.80
76613;DHT22;65507;48.454;-2.058;2022-12-07T07:19:44;5.10;80.80
76613;DHT22;65507;48.454;-2.058;2022-12-07T07:22:10;5.10;80.90
76613;DHT22;65507;48.454;-2.058;2022-12-07T07:24:36;5.10;80.80
76613;DHT22;65507;48.454;-2.058;2022-12-07T07:27:02;5.10;80.80
76613;DHT22;65507;48.454;-2.058;2022-12-07T07:29:28;5.10;80.80
76613;DHT22;65507;48.454;-2.058;2022-12-07T07:31:53;5.20;80.90
76613;DHT22;65507;48.454;-2.058;2022-12-07T07:34:19;5.20;80.80
76613;DHT22;65507;48.454;-2.058;2022-12-07T07:36:45;5.20;80.80
76613;DHT22;65507;48.454;-2.058;2022-12-07T07:39:10;5.30;80.80
76613;DHT22;65507;48.454;-2.058;2022-12-07T07:41:38;5.30;80.70
76613;DHT22;65507;48.454;-2.058;2022-12-07T07:44:04;5.30;80.70
76613;DHT22;65507;48.454;-2.058;2022-12-07T07:46:29;5.30;80.60
76613;DHT22;65507;48.454;-2.058;2022-12-07T07:48:55;5.30;80.60
76613;DHT22;65507;48.454;-2.058;2022-12-07T07:51:21;5.40;80.60
76613;DHT22;65507;48.454;-2.058;2022-12-07T07:53:47;5.40;80.60
76613;DHT22;65507;48.454;-2.058;2022-12-07T07:56:13;5.40;80.60
76613;DHT22;65507;48.454;-2.058;2022-12-07T07:58:38;5.50;80.60
76613;DHT22;65507;48.454;-2.058;2022-12-07T08:01:06;5.50;80.50
76613;DHT22;65507;48.454;-2.058;2022-12-07T08:03:32;5.50;80.50
76613;DHT22;65507;48.454;-2.058;2022-12-07T08:05:58;5.50;80.50
76613;DHT22;65507;48.454;-2.058;2022-12-07T08:08:26;5.50;80.60
76613;DHT22;65507;48.454;-2.058;2022-12-07T08:10:52;5.50;80.70
76613;DHT22;65507;48.454;-2.058;2022-12-07T08:13:17;5.50;80.60
76613;DHT22;65507;48.454;-2.058;2022-12-07T08:15:46;5.50;80.60
76613;DHT22;65507;48.454;-2.058;2022-12-07T08:18:14;5.50;80.60
76613;DHT22;65507;48.454;-2.058;2022-12-07T08:20:41;5.60;80.50
76613;DHT22;65507;48.454;-2.058;2022-12-07T08:23:07;5.60;80.50
76613;DHT22;65507;48.454;-2.058;2022-12-07T08:25:34;5.60;80.40
76613;DHT22;65507;48.454;-2.058;2022-12-07T08:28:00;5.50;80.30
76613;DHT22;65507;48.454;-2.058;2022-12-07T08:30:27;5.50;80.50
76613;DHT22;65507;48.454;-2.058;2022-12-07T08:32:53;5.50;80.70
76613;DHT22;65507;48.454;-2.058;2022-12-07T08:35:19;5.50;80.70
76613;DHT22;65507;48.454;-2.058;2022-12-07T08:37:45;5.40;80.70
76613;DHT22;65507;48.454;-2.058;2022-12-07T08:40:12;5.40;80.90
76613;DHT22;65507;48.454;-2.058;2022-12-07T08:42:48;5.40;81.00
76613;DHT22;65507;48.454;-2.058;2022-12-07T08:45:16;5.40;80.90
76613;DHT22;65507;48.454;-2.058;2022-12-07T08:47:59;5.40;80.90
76613;DHT22;65507;48.454;-2.058;2022-12-07T08:50:28;5.40;80.80
76613;DHT22;65507;48.454;-2.058;2022-12-07T08:52:56;5.40;80.80
76613;DHT22;65507;48.454;-2.058;2022-12-07T08:55:22;5.40;80.80
76613;DHT22;65507;48.454;-2.058;2022-12-07T08:57:48;5.50;80.80
76613;DHT22;65507;48.454;-2.058;2022-12-07T09:00:15;5.50;80.80
76613;DHT22;65507;48.454;-2.058;2022-12-07T09:02:45;5.50;80.80
76613;DHT22;65507;48.454;-2.058;2022-12-07T09:05:12;5.60;80.70
76613;DHT22;65507;48.454;-2.058;2022-12-07T09:07:41;5.60;80.60
76613;DHT22;65507;48.454;-2.058;2022-12-07T09:10:08;5.70;80.50
76613;DHT22;65507;48.454;-2.058;2022-12-07T09:12:34;5.80;80.40
76613;DHT22;65507;48.454;-2.058;2022-12-07T09:14:59;5.80;80.30
76613;DHT22;65507;48.454;-2.058;2022-12-07T09:17:26;5.90;80.20
76613;DHT22;65507;48.454;-2.058;2022-12-07T09:19:52;5.90;80.00
76613;DHT22;65507;48.454;-2.058;2022-12-07T09:22:18;6.00;80.10
76613;DHT22;65507;48.454;-2.058;2022-12-07T09:24:43;6.00;80.00
76613;DHT22;65507;48.454;-2.058;2022-12-07T09:27:11;6.10;79.90
76613;DHT22;65507;48.454;-2.058;2022-12-07T09:29:37;6.20;79.70
76613;DHT22;65507;48.454;-2.058;2022-12-07T09:32:03;6.20;79.70
76613;DHT22;65507;48.454;-2.058;2022-12-07T09:34:31;6.30;79.70
76613;DHT22;65507;48.454;-2.058;2022-12-07T09:36:57;6.40;79.70
76613;DHT22;65507;48.454;-2.058;2022-12-07T09:39:23;6.40;79.50
76613;DHT22;65507;48.454;-2.058;2022-12-07T09:41:49;6.50;79.40
76613;DHT22;65507;48.454;-2.058;2022-12-07T09:44:21;6.50;79.30
76613;DHT22;65507;48.454;-2.058;2022-12-07T09:46:48;6.60;79.40
76613;DHT22;65507;48.454;-2.058;2022-12-07T09:49:20;6.60;79.20
76613;DHT22;65507;48.454;-2.058;2022-12-07T09:51:58;6.70;79.20
76613;DHT22;65507;48.454;-2.058;2022-12-07T09:54:24;6.70;79.10
76613;DHT22;65507;48.454;-2.058;2022-12-07T09:56:50;6.80;79.00
76613;DHT22;65507;48.454;-2.058;2022-12-07T09:59:19;6.80;79.00
76613;DHT22;65507;48.454;-2.058;2022-12-07T10:01:49;6.90;79.10
76613;DHT22;65507;48.454;-2.058;2022-12-07T10:04:25;6.90;79.10
76613;DHT22;65507;48.454;-2.058;2022-12-07T10:06:52;6.90;79.00
76613;DHT22;65507;48.454;-2.058;2022-12-07T10:09:22;6.90;79.00
76613;DHT22;65507;48.454;-2.058;2022-12-07T10:12:07;6.90;79.10
76613;DHT22;65507;48.454;-2.058;2022-12-07T10:14:36;6.90;79.20
76613;DHT22;65507;48.454;-2.058;2022-12-07T10:17:08;7.00;79.10
76613;DHT22;65507;48.454;-2.058;2022-12-07T10:19:48;7.00;79.00
76613;DHT22;65507;48.454;-2.058;2022-12-07T10:22:16;7.10;79.00
76613;DHT22;65507;48.454;-2.058;2022-12-07T10:24:44;7.10;78.90
76613;DHT22;65507;48.454;-2.058;2022-12-07T10:27:19;7.20;79.00
76613;DHT22;65507;48.454;-2.058;2022-12-07T10:29:53;7.20;78.80
76613;DHT22;65507;48.454;-2.058;2022-12-07T10:34:44;7.40;78.80
76613;DHT22;65507;48.454;-2.058;2022-12-07T10:40:18;7.50;78.50
76613;DHT22;65507;48.454;-2.058;2022-12-07T10:42:34;7.50;78.40
76613;DHT22;65507;48.454;-2.058;2022-12-07T10:45:26;7.60;78.40
76613;DHT22;65507;48.454;-2.058;2022-12-07T10:56:19;7.90;78.00
76613;DHT22;65507;48.454;-2.058;2022-12-07T11:01:54;8.00;77.70
76613;DHT22;65507;48.454;-2.058;2022-12-07T11:20:58;8.30;77.50
76613;DHT22;65507;48.454;-2.058;2022-12-07T11:23:46;8.40;77.50
76613;DHT22;65507;48.454;-2.058;2022-12-07T11:37:20;8.60;77.10
76613;DHT22;65507;48.454;-2.058;2022-12-07T11:39:51;8.60;77.10
76613;DHT22;65507;48.454;-2.058;2022-12-07T11:42:36;8.70;77.00
76613;DHT22;65507;48.454;-2.058;2022-12-07T11:45:20;8.70;76.90
76613;DHT22;65507;48.454;-2.058;2022-12-07T11:48:05;8.80;77.00
76613;DHT22;65507;48.454;-2.058;2022-12-07T11:50:54;8.80;76.90
76613;DHT22;65507;48.454;-2.058;2022-12-07T11:54:11;8.90;76.80
76613;DHT22;65507;48.454;-2.058;2022-12-07T11:56:20;8.80;76.70
76613;DHT22;65507;48.454;-2.058;2022-12-07T12:03:47;9.00;76.70
76613;DHT22;65507;48.454;-2.058;2022-12-07T12:06:14;9.00;76.50
76613;DHT22;65507;48.454;-2.058;2022-12-07T12:08:48;9.00;76.50
76613;DHT22;65507;48.454;-2.058;2022-12-07T12:11:40;9.10;76.40
76613;DHT22;65507;48.454;-2.058;2022-12-07T12:14:37;9.20;76.30
76613;DHT22;65507;48.454;-2.058;2022-12-07T12:19:55;9.30;76.10
76613;DHT22;65507;48.454;-2.058;2022-12-07T12:22:39;9.30;76.00
76613;DHT22;65507;48.454;-2.058;2022-12-07T12:25:15;9.20;76.00
76613;DHT22;65507;48.454;-2.058;2022-12-07T12:27:47;9.20;76.00
76613;DHT22;65507;48.454;-2.058;2022-12-07T12:30:31;9.20;76.10
76613;DHT22;65507;48.454;-2.058;2022-12-07T12:35:37;9.30;76.00
76613;DHT22;65507;48.454;-2.058;2022-12-07T12:40:52;9.40;75.70
76613;DHT22;65507;48.454;-2.058;2022-12-07T12:51:41;9.80;75.00
76613;DHT22;65507;48.454;-2.058;2022-12-07T12:54:28;9.90;74.70
76613;DHT22;65507;48.454;-2.058;2022-12-07T12:57:26;10.10;74.50
76613;DHT22;65507;48.454;-2.058;2022-12-07T13:04:54;10.20;74.20
76613;DHT22;65507;48.454;-2.058;2022-12-07T13:15:53;10.30;74.20
76613;DHT22;65507;48.454;-2.058;2022-12-07T13:26:22;10.20;74.10
76613;DHT22;65507;48.454;-2.058;2022-12-07T13:31:33;9.90;74.40
76613;DHT22;65507;48.454;-2.058;2022-12-07T13:34:02;9.80;74.60
76613;DHT22;65507;48.454;-2.058;2022-12-07T13:36:34;9.60;74.80
76613;DHT22;65507;48.454;-2.058;2022-12-07T13:41:42;9.50;75.10
76613;DHT22;65507;48.454;-2.058;2022-12-07T13:44:09;9.50;75.10
76613;DHT22;65507;48.454;-2.058;2022-12-07T13:47:06;9.50;75.10
76613;DHT22;65507;48.454;-2.058;2022-12-07T13:49:46;9.40;75.00
76613;DHT22;65507;48.454;-2.058;2022-12-07T13:52:22;9.40;75.10
76613;DHT22;65507;48.454;-2.058;2022-12-07T13:54:57;9.40;75.00
76613;DHT22;65507;48.454;-2.058;2022-12-07T13:57:28;9.50;74.90
76613;DHT22;65507;48.454;-2.058;2022-12-07T13:59:56;9.50;74.70
76613;DHT22;65507;48.454;-2.058;2022-12-07T14:02:29;9.50;74.70
76613;DHT22;65507;48.454;-2.058;2022-12-07T14:05:14;9.50;74.50
76613;DHT22;65507;48.454;-2.058;2022-12-07T14:10:40;9.60;74.10
76613;DHT22;65507;48.454;-2.058;2022-12-07T14:15:54;9.70;74.10
76613;DHT22;65507;48.454;-2.058;2022-12-07T14:18:39;9.80;74.00
76613;DHT22;65507;48.454;-2.058;2022-12-07T14:23:40;9.90;73.80
76613;DHT22;65507;48.454;-2.058;2022-12-07T14:26:18;9.90;73.70
76613;DHT22;65507;48.454;-2.058;2022-12-07T14:28:44;9.90;73.70
76613;DHT22;65507;48.454;-2.058;2022-12-07T14:31:18;9.90;73.70
76613;DHT22;65507;48.454;-2.058;2022-12-07T14:33:46;9.90;73.70
76613;DHT22;65507;48.454;-2.058;2022-12-07T14:36:13;9.80;73.80
76613;DHT22;65507;48.454;-2.058;2022-12-07T14:38:40;9.80;73.80
76613;DHT22;65507;48.454;-2.058;2022-12-07T14:41:12;9.70;73.90
76613;DHT22;65507;48.454;-2.058;2022-12-07T14:43:57;9.60;74.10
76613;DHT22;65507;48.454;-2.058;2022-12-07T14:46:23;9.50;74.30
76613;DHT22;65507;48.454;-2.058;2022-12-07T14:48:49;9.50;74.40
76613;DHT22;65507;48.454;-2.058;2022-12-07T14:51:15;9.50;74.40
76613;DHT22;65507;48.454;-2.058;2022-12-07T14:53:48;9.40;74.40
76613;DHT22;65507;48.454;-2.058;2022-12-07T14:56:14;9.40;74.40
76613;DHT22;65507;48.454;-2.058;2022-12-07T14:58:40;9.40;74.40
76613;DHT22;65507;48.454;-2.058;2022-12-07T15:01:06;9.40;74.30
76613;DHT22;65507;48.454;-2.058;2022-12-07T15:03:32;9.40;74.30
76613;DHT22;65507;48.454;-2.058;2022-12-07T15:06:00;9.40;74.30
76613;DHT22;65507;48.454;-2.058;2022-12-07T15:08:26;9.40;74.30
76613;DHT22;65507;48.454;-2.058;2022-12-07T15:10:52;9.50;74.30
76613;DHT22;65507;48.454;-2.058;2022-12-07T15:13:18;9.50;74.20
76613;DHT22;65507;48.454;-2.058;2022-12-07T15:16:02;9.50;74.10
76613;DHT22;65507;48.454;-2.058;2022-12-07T15:18:28;9.60;74.10
76613;DHT22;65507;48.454;-2.058;2022-12-07T15:20:54;9.70;74.00
76613;DHT22;65507;48.454;-2.058;2022-12-07T15:23:20;9.70;73.90
76613;DHT22;65507;48.454;-2.058;2022-12-07T15:25:47;9.70;73.80
76613;DHT22;65507;48.454;-2.058;2022-12-07T15:28:14;9.80;73.80
76613;DHT22;65507;48.454;-2.058;2022-12-07T15:30:41;9.70;73.70
76613;DHT22;65507;48.454;-2.058;2022-12-07T15:33:08;9.70;73.70
76613;DHT22;65507;48.454;-2.058;2022-12-07T15:35:44;9.70;73.80
76613;DHT22;65507;48.454;-2.058;2022-12-07T15:38:10;9.70;73.70
76613;DHT22;65507;48.454;-2.058;2022-12-07T15:40:36;9.70;73.80
76613;DHT22;65507;48.454;-2.058;2022-12-07T15:43:03;9.70;73.80
76613;DHT22;65507;48.454;-2.058;2022-12-07T15:45:29;9.70;73.80
76613;DHT22;65507;48.454;-2.058;2022-12-07T15:47:54;9.70;73.90
76613;DHT22;65507;48.454;-2.058;2022-12-07T15:50:21;9.70;73.90
76613;DHT22;65507;48.454;-2.058;2022-12-07T15:52:48;9.70;74.00
76613;DHT22;65507;48.454;-2.058;2022-12-07T15:55:14;9.60;74.00
76613;DHT22;65507;48.454;-2.058;2022-12-07T15:57:40;9.60;74.10
76613;DHT22;65507;48.454;-2.058;2022-12-07T16:00:07;9.60;74.10
76613;DHT22;65507;48.454;-2.058;2022-12-07T16:02:34;9.60;74.10
76613;DHT22;65507;48.454;-2.058;2022-12-07T16:05:01;9.60;74.20
76613;DHT22;65507;48.454;-2.058;2022-12-07T16:07:27;9.50;74.10
76613;DHT22;65507;48.454;-2.058;2022-12-07T16:09:52;9.50;74.20
76613;DHT22;65507;48.454;-2.058;2022-12-07T16:12:18;9.50;74.20
76613;DHT22;65507;48.454;-2.058;2022-12-07T16:14:44;9.50;74.30
76613;DHT22;65507;48.454;-2.058;2022-12-07T16:17:11;9.50;74.30
76613;DHT22;65507;48.454;-2.058;2022-12-07T16:19:37;9.40;74.30
76613;DHT22;65507;48.454;-2.058;2022-12-07T16:22:03;9.40;74.30
76613;DHT22;65507;48.454;-2.058;2022-12-07T16:24:30;9.40;74.30
76613;DHT22;65507;48.454;-2.058;2022-12-07T16:26:56;9.40;74.40
76613;DHT22;65507;48.454;-2.058;2022-12-07T16:29:22;9.40;74.40
76613;DHT22;65507;48.454;-2.058;2022-12-07T16:31:49;9.40;74.40
76613;DHT22;65507;48.454;-2.058;2022-12-07T16:34:15;9.30;74.40
76613;DHT22;65507;48.454;-2.058;2022-12-07T16:36:41;9.30;74.50
76613;DHT22;65507;48.454;-2.058;2022-12-07T16:39:07;9.20;74.60
76613;DHT22;65507;48.454;-2.058;2022-12-07T16:41:33;9.10;74.70
76613;DHT22;65507;48.454;-2.058;2022-12-07T16:44:04;9.10;74.80
76613;DHT22;65507;48.454;-2.058;2022-12-07T16:46:34;9.10;74.90
76613;DHT22;65507;48.454;-2.058;2022-12-07T16:49:01;9.00;75.00
76613;DHT22;65507;48.454;-2.058;2022-12-07T16:51:27;8.90;75.00
76613;DHT22;65507;48.454;-2.058;2022-12-07T16:53:53;8.90;75.10
76613;DHT22;65507;48.454;-2.058;2022-12-07T16:56:19;8.80;75.10
76613;DHT22;65507;48.454;-2.058;2022-12-07T16:58:45;8.80;75.20
76613;DHT22;65507;48.454;-2.058;2022-12-07T17:01:14;8.80;75.20
76613;DHT22;65507;48.454;-2.058;2022-12-07T17:03:40;8.70;75.30
76613;DHT22;65507;48.454;-2.058;2022-12-07T17:06:27;8.70;75.40
76613;DHT22;65507;48.454;-2.058;2022-12-07T17:08:53;8.60;75.40
76613;DHT22;65507;48.454;-2.058;2022-12-07T17:11:21;8.50;75.60
76613;DHT22;65507;48.454;-2.058;2022-12-07T17:13:47;8.30;75.80
76613;DHT22;65507;48.454;-2.058;2022-12-07T17:16:32;8.30;76.10
76613;DHT22;65507;48.454;-2.058;2022-12-07T17:18:58;8.10;76.30
76613;DHT22;65507;48.454;-2.058;2022-12-07T17:21:24;8.10;76.40
76613;DHT22;65507;48.454;-2.058;2022-12-07T17:23:50;8.10;76.50
76613;DHT22;65507;48.454;-2.058;2022-12-07T17:26:20;8.10;76.50
76613;DHT22;65507;48.454;-2.058;2022-12-07T17:28:46;8.00;76.50
76613;DHT22;65507;48.454;-2.058;2022-12-07T17:31:13;8.00;76.70
76613;DHT22;65507;48.454;-2.058;2022-12-07T17:33:39;8.00;77.60
76613;DHT22;65507;48.454;-2.058;2022-12-07T17:36:17;8.00;76.70
76613;DHT22;65507;48.454;-2.058;2022-12-07T17:38:43;8.00;76.70
76613;DHT22;65507;48.454;-2.058;2022-12-07T17:41:15;8.00;76.60
76613;DHT22;65507;48.454;-2.058;2022-12-07T17:44:02;8.00;76.50
76613;DHT22;65507;48.454;-2.058;2022-12-07T17:46:29;8.00;77.40
76613;DHT22;65507;48.454;-2.058;2022-12-07T17:48:55;8.00;76.60
76613;DHT22;65507;48.454;-2.058;2022-12-07T17:51:21;7.90;76.70
76613;DHT22;65507;48.454;-2.058;2022-12-07T17:54:05;7.80;76.90
76613;DHT22;65507;48.454;-2.058;2022-12-07T17:56:31;7.70;77.20